createdAt,value
2017-08-16T00:00:19.948Z,-4.06
2017-08-16T00:01:07.957Z,-4.06
2017-08-16T00:02:02.016Z,-4.06
2017-08-16T00:03:02.072Z,-4.06
2017-08-16T00:03:51.081Z,-4.06
2017-08-16T00:04:39.174Z,-4.06
2017-08-16T00:05:27.161Z,-4.06
2017-08-16T00:06:21.293Z,-4.06
2017-08-16T00:07:27.184Z,-4.06
2017-08-16T00:08:27.303Z,-4.06
2017-08-16T00:09:21.323Z,-4.06
2017-08-16T00:10:21.396Z,-4.06
2017-08-16T00:11:16.467Z,-4.06
2017-08-16T00:12:11.338Z,-4.06
2017-08-16T00:13:05.443Z,-4.06
2017-08-16T00:13:53.466Z,-4.06
2017-08-16T00:14:41.267Z,-4.06
2017-08-16T00:15:30.654Z,-4.06
2017-08-16T00:16:25.642Z,-4.06
2017-08-16T00:17:19.624Z,-4.06
2017-08-16T00:18:14.442Z,-4.06
2017-08-16T00:19:03.811Z,-4.06
2017-08-16T00:19:51.593Z,-4.06
2017-08-16T00:20:45.876Z,-4.06
2017-08-16T00:21:39.777Z,-4.06
2017-08-16T00:22:27.784Z,-4.06
2017-08-16T00:23:16.882Z,-4.06
2017-08-16T00:24:05.855Z,-4.06
2017-08-16T00:24:55.120Z,-4.06
2017-08-16T00:25:55.206Z,-4.06
2017-08-16T00:26:48.827Z,-4.06
2017-08-16T00:27:37.104Z,-4.06
2017-08-16T00:28:37.172Z,-4.06
2017-08-16T00:29:37.313Z,-4.06
2017-08-16T00:30:31.422Z,-4.06
2017-08-16T00:31:31.329Z,-4.06
2017-08-16T00:32:25.337Z,-4.06
2017-08-16T00:33:26.342Z,-4.06
2017-08-16T00:34:26.321Z,-4.06
2017-08-16T00:35:15.501Z,-4.06
2017-08-16T00:36:04.620Z,-4.06
2017-08-16T00:36:59.561Z,-4.06
2017-08-16T00:37:53.642Z,-4.06
2017-08-16T00:38:47.688Z,-4.06
2017-08-16T00:39:42.752Z,-4.06
2017-08-16T00:40:36.816Z,-4.06
2017-08-16T00:41:36.873Z,-4.06
2017-08-16T00:42:30.805Z,-4.06
2017-08-16T00:43:19.887Z,-4.06
2017-08-16T00:44:14.935Z,-4.06
2017-08-16T00:45:08.946Z,-4.06
2017-08-16T00:46:09.014Z,-4.06
2017-08-16T00:47:03.994Z,-4.06
2017-08-16T00:47:59.103Z,-4.06
2017-08-16T00:48:59.083Z,-4.06
2017-08-16T00:49:54.210Z,-4.06
2017-08-16T00:50:49.271Z,-4.06
2017-08-16T00:51:49.272Z,-4.06
2017-08-16T00:52:44.329Z,-4.06
2017-08-16T00:53:39.353Z,-4.06
2017-08-16T00:54:39.364Z,-4.06
2017-08-16T00:55:33.384Z,-4.06
2017-08-16T00:56:28.419Z,-4.06
2017-08-16T00:57:23.460Z,-4.06
2017-08-16T00:58:18.350Z,-4.06
2017-08-16T00:59:06.550Z,-4.06
2017-08-16T01:00:00.663Z,-4.06
2017-08-16T01:00:54.621Z,-4.06
2017-08-16T01:01:49.745Z,-4.06
2017-08-16T01:02:43.506Z,-4.06
2017-08-16T01:03:37.716Z,-4.06
2017-08-16T01:04:25.850Z,-4.06
2017-08-16T01:05:19.859Z,-4.06
2017-08-16T01:06:14.990Z,-4.07
2017-08-16T01:07:08.893Z,-4.07
2017-08-16T01:08:08.852Z,-4.07
2017-08-16T01:09:02.879Z,-4.07
2017-08-16T01:09:52.004Z,-4.07
2017-08-16T01:10:47.050Z,-4.07
2017-08-16T01:11:40.771Z,-4.07
2017-08-16T01:12:41.056Z,-4.07
2017-08-16T01:13:30.020Z,-4.07
2017-08-16T01:14:19.225Z,-4.06
2017-08-16T01:15:08.324Z,-4.06
2017-08-16T01:15:57.454Z,-4.07
2017-08-16T01:16:45.349Z,-4.06
2017-08-16T01:17:34.473Z,-4.06
2017-08-16T01:18:29.375Z,-4.06
2017-08-16T01:19:29.472Z,-4.06
2017-08-16T01:20:24.486Z,-4.07
2017-08-16T01:21:19.577Z,-4.07
2017-08-16T01:22:19.629Z,-4.07
2017-08-16T01:23:14.636Z,-4.07
2017-08-16T01:24:08.709Z,-4.07
2017-08-16T01:25:02.740Z,-4.07
2017-08-16T01:26:02.869Z,-4.07
2017-08-16T01:26:51.799Z,-4.06
2017-08-16T01:27:40.916Z,-4.06
2017-08-16T01:28:34.935Z,-4.06
2017-08-16T01:29:29.949Z,-4.06
2017-08-16T01:30:24.132Z,-4.07
2017-08-16T01:31:12.010Z,-4.07
2017-08-16T01:32:00.032Z,-4.07
2017-08-16T01:33:01.182Z,-4.07
2017-08-16T01:33:56.180Z,-4.07
2017-08-16T01:34:50.176Z,-4.07
2017-08-16T01:35:39.246Z,-4.07
2017-08-16T01:36:33.245Z,-4.07
2017-08-16T01:37:28.365Z,-4.07
2017-08-16T01:38:28.380Z,-4.07
2017-08-16T01:39:23.367Z,-4.07
2017-08-16T01:40:17.467Z,-4.07
2017-08-16T01:41:06.494Z,-4.07
2017-08-16T01:41:54.476Z,-4.07
2017-08-16T01:42:42.602Z,-4.07
2017-08-16T01:43:36.622Z,-4.07
2017-08-16T01:44:37.627Z,-4.07
2017-08-16T01:45:38.688Z,-4.07
2017-08-16T01:46:27.689Z,-4.07
2017-08-16T01:47:15.783Z,-4.07
2017-08-16T01:48:03.912Z,-4.07
2017-08-16T01:48:51.806Z,-4.07
2017-08-16T01:49:39.861Z,-4.07
2017-08-16T01:50:33.895Z,-4.07
2017-08-16T01:51:22.989Z,-4.07
2017-08-16T01:52:11.065Z,-4.07
2017-08-16T01:52:59.150Z,-4.07
2017-08-16T01:53:48.074Z,-4.07
2017-08-16T01:54:36.270Z,-4.07
2017-08-16T01:55:24.260Z,-4.07
2017-08-16T01:56:12.300Z,-4.07
2017-08-16T01:57:07.356Z,-4.07
2017-08-16T01:58:07.384Z,-4.07
2017-08-16T01:58:55.399Z,-4.07
2017-08-16T01:59:50.467Z,-4.07
2017-08-16T02:00:50.535Z,-4.07
2017-08-16T02:01:38.502Z,-4.07
2017-08-16T02:02:27.513Z,-4.07
2017-08-16T02:03:15.558Z,-4.07
2017-08-16T02:04:04.619Z,-4.07
2017-08-16T02:04:58.673Z,-4.07
2017-08-16T02:05:52.749Z,-4.07
2017-08-16T02:06:41.815Z,-4.07
2017-08-16T02:07:29.800Z,-4.07
2017-08-16T02:08:23.817Z,-4.07
2017-08-16T02:09:11.918Z,-4.07
2017-08-16T02:10:00.967Z,-4.07
2017-08-16T02:10:49.020Z,-4.07
2017-08-16T02:11:37.062Z,-4.07
2017-08-16T02:12:26.121Z,-4.07
2017-08-16T02:13:14.147Z,-4.07
2017-08-16T02:14:08.152Z,-4.07
2017-08-16T02:15:02.142Z,-4.07
2017-08-16T02:15:50.154Z,-4.07
2017-08-16T02:16:38.287Z,-4.07
2017-08-16T02:17:26.314Z,-4.07
2017-08-16T02:18:14.378Z,-4.07
2017-08-16T02:19:03.428Z,-4.07
2017-08-16T02:19:52.524Z,-4.07
2017-08-16T02:20:40.614Z,-4.07
2017-08-16T02:21:28.603Z,-4.07
2017-08-16T02:22:16.607Z,-4.07
2017-08-16T02:23:05.616Z,-4.07
2017-08-16T02:23:53.755Z,-4.07
2017-08-16T02:24:41.781Z,-4.07
2017-08-16T02:25:30.783Z,-4.07
2017-08-16T02:26:19.006Z,-4.07
2017-08-16T02:27:06.953Z,-4.07
2017-08-16T02:27:55.866Z,-4.07
2017-08-16T02:28:43.880Z,-4.07
2017-08-16T02:29:32.043Z,-4.07
2017-08-16T02:30:26.140Z,-4.07
2017-08-16T02:31:15.221Z,-4.07
2017-08-16T02:32:03.166Z,-4.07
2017-08-16T02:32:51.287Z,-4.07
2017-08-16T02:33:39.306Z,-4.07
2017-08-16T02:34:28.388Z,-4.07
2017-08-16T02:35:16.479Z,-4.07
2017-08-16T02:36:04.452Z,-4.07
2017-08-16T02:36:53.767Z,-4.07
2017-08-16T02:37:41.516Z,-4.07
2017-08-16T02:38:29.536Z,-4.07
2017-08-16T02:39:18.562Z,-4.07
2017-08-16T02:40:06.671Z,-4.07
2017-08-16T02:40:54.779Z,-4.07
2017-08-16T02:41:43.716Z,-4.07
2017-08-16T02:42:31.928Z,-4.07
2017-08-16T02:43:19.731Z,-4.07
2017-08-16T02:44:20.901Z,-4.07
2017-08-16T02:45:14.925Z,-4.07
2017-08-16T02:46:15.950Z,-4.07
2017-08-16T02:47:15.901Z,-4.07
2017-08-16T02:48:05.041Z,-4.07
2017-08-16T02:48:52.998Z,-4.07
2017-08-16T02:49:42.127Z,-4.07
2017-08-16T02:50:30.157Z,-4.07
2017-08-16T02:51:24.218Z,-4.07
2017-08-16T02:52:12.271Z,-4.07
2017-08-16T02:53:00.297Z,-4.07
2017-08-16T02:54:00.323Z,-4.07
2017-08-16T02:54:55.408Z,-4.07
2017-08-16T02:55:55.345Z,-4.07
2017-08-16T02:56:50.405Z,-4.07
2017-08-16T02:57:45.497Z,-4.07
2017-08-16T02:58:45.472Z,-4.07
2017-08-16T02:59:40.594Z,-4.07
2017-08-16T03:00:35.542Z,-4.07
2017-08-16T03:01:35.600Z,-4.07
2017-08-16T03:02:30.653Z,-4.07
2017-08-16T03:03:25.714Z,-4.07
2017-08-16T03:04:26.623Z,-4.07
2017-08-16T03:05:26.727Z,-4.07
2017-08-16T03:06:26.882Z,-4.07
2017-08-16T03:07:21.759Z,-4.07
2017-08-16T03:08:15.855Z,-4.07
2017-08-16T03:09:15.995Z,-4.07
2017-08-16T03:10:09.871Z,-4.07
2017-08-16T03:11:05.106Z,-4.07
2017-08-16T03:12:00.113Z,-4.07
2017-08-16T03:13:00.079Z,-4.07
2017-08-16T03:13:48.116Z,-4.07
2017-08-16T03:14:37.138Z,-4.07
2017-08-16T03:15:31.173Z,-4.07
2017-08-16T03:16:25.293Z,-4.07
2017-08-16T03:17:13.288Z,-4.07
2017-08-16T03:18:07.346Z,-4.07
2017-08-16T03:18:56.408Z,-4.07
2017-08-16T03:19:45.382Z,-4.07
2017-08-16T03:20:33.432Z,-4.07
2017-08-16T03:21:21.549Z,-4.07
2017-08-16T03:22:09.419Z,-4.07
2017-08-16T03:23:03.530Z,-4.07
2017-08-16T03:23:57.587Z,-4.07
2017-08-16T03:24:46.546Z,-4.07
2017-08-16T03:25:35.433Z,-4.07
2017-08-16T03:26:24.713Z,-4.07
2017-08-16T03:27:12.796Z,-4.07
2017-08-16T03:28:00.821Z,-4.07
2017-08-16T03:28:49.004Z,-4.07
2017-08-16T03:29:37.926Z,-4.07
2017-08-16T03:30:25.986Z,-4.07
2017-08-16T03:31:14.975Z,-4.07
2017-08-16T03:32:04.014Z,-4.07
2017-08-16T03:32:58.809Z,-4.07
2017-08-16T03:33:53.976Z,-4.07
2017-08-16T03:34:42.085Z,-4.07
2017-08-16T03:35:29.897Z,-4.07
2017-08-16T03:36:19.230Z,-4.07
2017-08-16T03:37:07.132Z,-4.07
2017-08-16T03:37:55.243Z,-4.07
2017-08-16T03:38:44.315Z,-4.07
2017-08-16T03:39:32.155Z,-4.07
2017-08-16T03:40:20.225Z,-4.07
2017-08-16T03:41:15.215Z,-4.07
2017-08-16T03:42:10.274Z,-4.08
2017-08-16T03:43:04.326Z,-4.08
2017-08-16T03:43:58.369Z,-4.08
2017-08-16T03:44:52.469Z,-4.08
2017-08-16T03:45:40.593Z,-4.08
2017-08-16T03:46:29.507Z,-4.08
2017-08-16T03:47:17.550Z,-4.08
2017-08-16T03:48:05.526Z,-4.08
2017-08-16T03:48:54.679Z,-4.08
2017-08-16T03:49:43.719Z,-4.08
2017-08-16T03:50:44.098Z,-4.08
2017-08-16T03:51:37.729Z,-4.08
2017-08-16T03:52:38.742Z,-4.08
2017-08-16T03:53:39.131Z,-4.08
2017-08-16T03:54:33.866Z,-4.08
2017-08-16T03:55:33.942Z,-4.07
2017-08-16T03:56:21.858Z,-4.08
2017-08-16T03:57:11.284Z,-4.08
2017-08-16T03:58:12.165Z,-4.08
2017-08-16T03:59:06.022Z,-4.07
2017-08-16T04:00:00.055Z,-4.08
2017-08-16T04:00:55.115Z,-4.08
2017-08-16T04:01:49.169Z,-4.08
2017-08-16T04:02:43.183Z,-4.08
2017-08-16T04:03:38.170Z,-4.08
2017-08-16T04:04:32.286Z,-4.07
2017-08-16T04:05:32.304Z,-4.07
2017-08-16T04:06:21.726Z,-4.07
2017-08-16T04:07:10.337Z,-4.07
2017-08-16T04:08:11.741Z,-4.07
2017-08-16T04:09:11.543Z,-4.07
2017-08-16T04:10:11.474Z,-4.07
2017-08-16T04:11:11.519Z,-4.07
2017-08-16T04:12:11.631Z,-4.07
2017-08-16T04:13:05.617Z,-4.07
2017-08-16T04:13:54.659Z,-4.07
2017-08-16T04:14:49.692Z,-4.07
2017-08-16T04:15:37.729Z,-4.07
2017-08-16T04:16:31.787Z,-4.07
2017-08-16T04:17:25.872Z,-4.07
2017-08-16T04:18:25.852Z,-4.07
2017-08-16T04:19:25.862Z,-4.08
2017-08-16T04:20:25.924Z,-4.08
2017-08-16T04:21:25.975Z,-4.08
2017-08-16T04:22:27.104Z,-4.08
2017-08-16T04:23:22.034Z,-4.08
2017-08-16T04:24:16.066Z,-4.08
2017-08-16T04:25:16.147Z,-4.08
2017-08-16T04:26:11.343Z,-4.08
2017-08-16T04:27:06.165Z,-4.08
2017-08-16T04:28:00.279Z,-4.08
2017-08-16T04:28:54.276Z,-4.08
2017-08-16T04:29:49.296Z,-4.08
2017-08-16T04:30:38.414Z,-4.08
2017-08-16T04:31:38.718Z,-4.08
2017-08-16T04:32:38.463Z,-4.08
2017-08-16T04:33:38.852Z,-4.08
2017-08-16T04:34:38.531Z,-4.08
2017-08-16T04:35:33.543Z,-4.08
2017-08-16T04:36:33.599Z,-4.08
2017-08-16T04:37:28.667Z,-4.08
2017-08-16T04:38:23.706Z,-4.08
2017-08-16T04:39:23.687Z,-4.08
2017-08-16T04:40:18.667Z,-4.08
2017-08-16T04:41:12.799Z,-4.08
2017-08-16T04:42:07.758Z,-4.08
2017-08-16T04:42:55.886Z,-4.08
2017-08-16T04:43:50.149Z,-4.08
2017-08-16T04:44:49.995Z,-4.08
2017-08-16T04:45:45.381Z,-4.08
2017-08-16T04:46:38.996Z,-4.08
2017-08-16T04:47:28.052Z,-4.08
2017-08-16T04:48:17.098Z,-4.08
2017-08-16T04:49:05.229Z,-4.08
2017-08-16T04:49:53.353Z,-4.08
2017-08-16T04:50:41.237Z,-4.08
2017-08-16T04:51:35.246Z,-4.08
2017-08-16T04:52:24.331Z,-4.08
2017-08-16T04:53:12.666Z,-4.08
2017-08-16T04:54:01.710Z,-4.08
2017-08-16T04:54:49.517Z,-4.08
2017-08-16T04:55:37.541Z,-4.08
2017-08-16T04:56:26.856Z,-4.08
2017-08-16T04:57:14.756Z,-4.08
2017-08-16T04:58:02.709Z,-4.08
2017-08-16T04:58:56.723Z,-4.08
2017-08-16T04:59:57.020Z,-4.08
2017-08-16T05:00:50.715Z,-4.08
2017-08-16T05:01:44.780Z,-4.08
2017-08-16T05:02:38.794Z,-4.08
2017-08-16T05:03:26.856Z,-4.08
2017-08-16T05:04:20.876Z,-4.08
2017-08-16T05:05:20.982Z,-4.08
2017-08-16T05:06:16.312Z,-4.08
2017-08-16T05:07:10.299Z,-4.08
2017-08-16T05:08:10.401Z,-4.08
2017-08-16T05:09:05.411Z,-4.08
2017-08-16T05:10:05.551Z,-4.08
2017-08-16T05:11:05.523Z,-4.08
2017-08-16T05:12:05.564Z,-4.08
2017-08-16T05:12:59.458Z,-4.08
2017-08-16T05:13:59.576Z,-4.08
2017-08-16T05:14:48.702Z,-4.08
2017-08-16T05:15:42.717Z,-4.08
2017-08-16T05:16:36.393Z,-4.08
2017-08-16T05:17:30.829Z,-4.08
2017-08-16T05:18:24.507Z,-4.08
2017-08-16T05:19:19.631Z,-4.08
2017-08-16T05:20:13.629Z,-4.08
2017-08-16T05:21:07.901Z,-4.07
2017-08-16T05:22:02.826Z,-4.07
2017-08-16T05:22:51.801Z,-4.07
2017-08-16T05:23:45.738Z,-4.07
2017-08-16T05:24:33.891Z,-4.07
2017-08-16T05:25:29.142Z,-4.07
2017-08-16T05:26:29.034Z,-4.07
2017-08-16T05:27:28.883Z,-4.07
2017-08-16T05:28:29.214Z,-4.07
2017-08-16T05:29:29.090Z,-4.07
2017-08-16T05:30:29.200Z,-4.07
2017-08-16T05:31:24.368Z,-4.07
2017-08-16T05:32:13.433Z,-4.07
2017-08-16T05:33:13.517Z,-4.07
2017-08-16T05:34:07.532Z,-4.07
2017-08-16T05:35:07.609Z,-4.07
2017-08-16T05:36:01.589Z,-4.07
2017-08-16T05:36:49.693Z,-4.06
2017-08-16T05:37:49.732Z,-4.06
2017-08-16T05:38:49.684Z,-4.06
2017-08-16T05:39:43.742Z,-4.06
2017-08-16T05:40:32.778Z,-4.06
2017-08-16T05:41:26.806Z,-4.07
2017-08-16T05:42:15.819Z,-4.07
2017-08-16T05:43:15.944Z,-4.07
2017-08-16T05:44:22.009Z,-4.07
2017-08-16T05:45:17.079Z,-4.06
2017-08-16T05:46:11.080Z,-4.06
2017-08-16T05:47:11.124Z,-4.06
2017-08-16T05:48:05.263Z,-4.06
2017-08-16T05:49:06.168Z,-4.06
2017-08-16T05:50:07.208Z,-4.05
2017-08-16T05:51:01.252Z,-4.05
2017-08-16T05:51:49.262Z,-4.05
2017-08-16T05:52:43.400Z,-4.05
2017-08-16T05:53:37.338Z,-4.05
2017-08-16T05:54:26.539Z,-4.05
2017-08-16T05:55:26.458Z,-4.05
2017-08-16T05:56:15.659Z,-4.05
2017-08-16T05:57:09.606Z,-4.05
2017-08-16T05:58:09.578Z,-4.05
2017-08-16T05:58:57.738Z,-4.05
2017-08-16T05:59:46.671Z,-4.04
2017-08-16T06:00:34.816Z,-4.04
2017-08-16T06:01:23.884Z,-4.04
2017-08-16T06:02:23.909Z,-4.04
2017-08-16T06:03:25.124Z,-4.04
2017-08-16T06:04:19.158Z,-4.04
2017-08-16T06:05:08.079Z,-4.04
2017-08-16T06:06:03.068Z,-4.05
2017-08-16T06:06:57.165Z,-4.05
2017-08-16T06:07:51.256Z,-4.05
2017-08-16T06:08:45.220Z,-4.05
2017-08-16T06:09:33.296Z,-4.06
2017-08-16T06:10:28.327Z,-4.06
2017-08-16T06:11:17.372Z,-4.06
2017-08-16T06:12:12.467Z,-4.06
2017-08-16T06:13:00.415Z,-4.06
2017-08-16T06:13:49.485Z,-4.06
2017-08-16T06:14:44.605Z,-4.07
2017-08-16T06:15:32.640Z,-4.07
2017-08-16T06:16:21.731Z,-4.07
2017-08-16T06:17:21.936Z,-4.07
2017-08-16T06:18:16.837Z,-4.07
2017-08-16T06:19:10.873Z,-4.07
2017-08-16T06:19:58.907Z,-4.08
2017-08-16T06:20:52.926Z,-4.08
2017-08-16T06:21:41.915Z,-4.08
2017-08-16T06:22:36.027Z,-4.08
2017-08-16T06:23:30.143Z,-4.08
2017-08-16T06:24:19.082Z,-4.08
2017-08-16T06:25:07.183Z,-4.08
2017-08-16T06:26:02.270Z,-4.08
2017-08-16T06:26:57.271Z,-4.08
2017-08-16T06:27:51.260Z,-4.08
2017-08-16T06:28:45.342Z,-4.07
2017-08-16T06:29:40.471Z,-4.07
2017-08-16T06:30:34.487Z,-4.07
2017-08-16T06:31:22.568Z,-4.07
2017-08-16T06:32:17.600Z,-4.07
2017-08-16T06:33:18.932Z,-4.07
2017-08-16T06:34:13.786Z,-4.07
2017-08-16T06:35:07.728Z,-4.06
2017-08-16T06:36:08.799Z,-4.05
2017-08-16T06:37:03.804Z,-4.04
2017-08-16T06:38:03.917Z,-4.03
2017-08-16T06:38:52.917Z,-4.03
2017-08-16T06:39:52.892Z,-4.03
2017-08-16T06:40:41.935Z,-4.03
2017-08-16T06:41:37.135Z,-4.03
2017-08-16T06:42:25.171Z,-4.02
2017-08-16T06:43:25.257Z,-4.03
2017-08-16T06:44:19.265Z,-4.04
2017-08-16T06:45:13.175Z,-4.03
2017-08-16T06:46:02.370Z,-4.02
2017-08-16T06:46:56.326Z,-4.02
2017-08-16T06:47:57.395Z,-4.03
2017-08-16T06:48:51.447Z,-4.03
2017-08-16T06:49:51.599Z,-4.02
2017-08-16T06:50:39.625Z,-4.02
2017-08-16T06:51:28.653Z,-4.02
2017-08-16T06:52:16.732Z,-4.02
2017-08-16T06:53:05.735Z,-4.02
2017-08-16T06:54:00.909Z,-4.01
2017-08-16T06:54:48.938Z,-4.01
2017-08-16T06:55:49.002Z,-4.01
2017-08-16T06:56:42.902Z,-4.01
2017-08-16T06:57:32.078Z,-4.01
2017-08-16T06:58:20.064Z,-4.01
2017-08-16T06:59:15.115Z,-4.01
2017-08-16T07:00:09.248Z,-4.01
2017-08-16T07:00:58.353Z,-4.01
2017-08-16T07:01:52.400Z,-4.01
2017-08-16T07:02:46.323Z,-4.01
2017-08-16T07:03:40.506Z,-4.01
2017-08-16T07:04:40.468Z,-4.02
2017-08-16T07:05:40.592Z,-4.02
2017-08-16T07:06:35.645Z,-4.02
2017-08-16T07:07:29.657Z,-4.02
2017-08-16T07:08:24.720Z,-4.02
2017-08-16T07:09:18.730Z,-4.01
2017-08-16T07:10:07.777Z,-4.01
2017-08-16T07:11:02.841Z,-4.01
2017-08-16T07:11:52.006Z,-4.02
2017-08-16T07:12:46.938Z,-4.01
2017-08-16T07:13:41.018Z,-4.01
2017-08-16T07:14:41.052Z,-4.01
2017-08-16T07:15:30.096Z,-4.01
2017-08-16T07:16:25.242Z,-4.00
2017-08-16T07:17:19.165Z,-4.01
2017-08-16T07:18:13.380Z,-4.01
2017-08-16T07:19:08.361Z,-4.02
2017-08-16T07:20:08.436Z,-4.03
2017-08-16T07:20:57.478Z,-4.03
2017-08-16T07:21:46.538Z,-4.03
2017-08-16T07:22:40.606Z,-4.02
2017-08-16T07:23:35.617Z,-4.01
2017-08-16T07:24:24.751Z,-4.01
2017-08-16T07:25:13.823Z,-4.01
2017-08-16T07:26:02.854Z,-4.01
2017-08-16T07:26:56.980Z,1.46
2017-08-16T07:27:45.946Z,12.15
2017-08-16T07:28:46.029Z,4.77
2017-08-16T07:29:40.017Z,-4.01
2017-08-16T07:30:34.122Z,-4.01
2017-08-16T07:31:29.224Z,-2.47
2017-08-16T07:32:23.274Z,-0.63
2017-08-16T07:33:23.225Z,-4.01
2017-08-16T07:34:12.336Z,-4.01
2017-08-16T07:35:06.394Z,0.32
2017-08-16T07:36:01.542Z,-4.02
2017-08-16T07:36:49.513Z,-4.02
2017-08-16T07:37:43.658Z,-4.02
2017-08-16T07:38:38.673Z,-4.01
2017-08-16T07:39:32.762Z,-4.02
2017-08-16T07:40:21.807Z,-4.02
2017-08-16T07:41:15.773Z,-4.02
2017-08-16T07:42:15.872Z,-4.02
2017-08-16T07:43:15.944Z,-4.02
2017-08-16T07:44:04.967Z,-4.02
2017-08-16T07:44:58.963Z,-4.03
2017-08-16T07:45:53.134Z,-4.03
2017-08-16T07:46:47.191Z,-4.04
2017-08-16T07:47:41.157Z,-4.04
2017-08-16T07:48:36.315Z,-4.04
2017-08-16T07:49:24.389Z,-4.04
2017-08-16T07:50:19.380Z,-4.04
2017-08-16T07:51:19.348Z,-4.03
2017-08-16T07:52:13.455Z,-4.02
2017-08-16T07:53:08.578Z,-4.02
2017-08-16T07:54:03.636Z,-4.02
2017-08-16T07:54:58.716Z,-4.02
2017-08-16T07:55:53.727Z,-4.02
2017-08-16T07:56:42.762Z,-4.02
2017-08-16T07:57:31.798Z,-4.02
2017-08-16T07:58:19.861Z,-4.01
2017-08-16T07:59:19.976Z,-4.02
2017-08-16T08:00:13.986Z,-4.02
2017-08-16T08:01:14.120Z,-4.02
2017-08-16T08:02:02.134Z,-4.02
2017-08-16T08:02:51.162Z,-4.02
2017-08-16T08:03:46.196Z,-4.01
2017-08-16T08:04:46.297Z,0.97
2017-08-16T08:05:40.414Z,0.25
2017-08-16T08:06:40.352Z,3.28
2017-08-16T08:07:29.468Z,9.77
2017-08-16T08:08:24.500Z,13.61
2017-08-16T08:09:24.518Z,27.17
2017-08-16T08:10:19.556Z,23.88
2017-08-16T08:11:13.711Z,24.74
2017-08-16T08:12:07.739Z,26.41
2017-08-16T08:12:56.681Z,20.59
2017-08-16T08:13:50.771Z,20.31
2017-08-16T08:14:39.888Z,28.01
2017-08-16T08:15:33.907Z,32.09
2017-08-16T08:16:28.987Z,24.52
2017-08-16T08:17:17.983Z,26.73
2017-08-16T08:18:12.126Z,32.68
2017-08-16T08:19:12.127Z,37.80
2017-08-16T08:20:07.224Z,28.35
2017-08-16T08:21:07.269Z,29.63
2017-08-16T08:22:02.475Z,38.02
2017-08-16T08:22:57.428Z,32.92
2017-08-16T08:23:46.461Z,30.45
2017-08-16T08:24:46.612Z,39.18
2017-08-16T08:25:40.590Z,41.64
2017-08-16T08:26:40.661Z,33.48
2017-08-16T08:27:29.703Z,31.52
2017-08-16T08:28:23.822Z,38.43
2017-08-16T08:29:23.788Z,40.11
2017-08-16T08:30:17.927Z,34.72
2017-08-16T08:31:07.007Z,46.01
2017-08-16T08:31:56.031Z,44.09
2017-08-16T08:32:51.197Z,40.21
2017-08-16T08:33:51.147Z,40.41
2017-08-16T08:34:40.099Z,43.62
2017-08-16T08:35:29.246Z,46.67
2017-08-16T08:36:23.234Z,46.05
2017-08-16T08:37:17.297Z,44.45
2017-08-16T08:38:06.353Z,41.01
2017-08-16T08:38:54.553Z,40.16
2017-08-16T08:39:54.615Z,41.92
2017-08-16T08:40:42.719Z,46.66
2017-08-16T08:41:36.680Z,46.97
2017-08-16T08:42:30.726Z,46.59
2017-08-16T08:43:25.792Z,47.26
2017-08-16T08:44:25.858Z,47.47
2017-08-16T08:45:19.911Z,47.39
2017-08-16T08:46:09.062Z,46.71
2017-08-16T08:47:04.103Z,47.63
2017-08-16T08:47:52.153Z,47.35
2017-08-16T08:48:41.205Z,47.41
2017-08-16T08:49:36.275Z,46.82
2017-08-16T08:50:31.368Z,47.58
2017-08-16T08:51:25.352Z,47.38
2017-08-16T08:52:19.405Z,45.89
2017-08-16T08:53:13.430Z,44.20
2017-08-16T08:54:02.535Z,45.82
2017-08-16T08:54:56.641Z,45.38
2017-08-16T08:55:50.706Z,43.56
2017-08-16T08:56:39.694Z,45.76
2017-08-16T08:57:33.834Z,46.21
2017-08-16T08:58:28.849Z,46.82
2017-08-16T08:59:17.957Z,48.19
2017-08-16T09:00:12.009Z,47.45
2017-08-16T09:01:06.037Z,48.37
2017-08-16T09:02:01.154Z,46.89
2017-08-16T09:03:02.165Z,48.17
2017-08-16T09:03:51.248Z,47.99
2017-08-16T09:04:51.398Z,47.88
2017-08-16T09:05:51.421Z,47.73
2017-08-16T09:06:46.510Z,47.92
2017-08-16T09:07:40.569Z,47.04
2017-08-16T09:08:29.491Z,47.12
2017-08-16T09:09:24.628Z,47.64
2017-08-16T09:10:19.876Z,46.80
2017-08-16T09:11:07.822Z,47.99
2017-08-16T09:12:07.853Z,47.82
2017-08-16T09:13:01.863Z,48.44
2017-08-16T09:13:51.003Z,48.30
2017-08-16T09:14:51.031Z,48.30
2017-08-16T09:15:45.236Z,48.19
2017-08-16T09:16:39.193Z,47.12
2017-08-16T09:17:33.343Z,47.54
2017-08-16T09:18:27.310Z,47.88
2017-08-16T09:19:16.421Z,47.73
2017-08-16T09:20:10.444Z,48.13
2017-08-16T09:21:11.583Z,48.36
2017-08-16T09:22:06.685Z,46.37
2017-08-16T09:22:55.631Z,47.78
2017-08-16T09:23:49.733Z,47.98
2017-08-16T09:24:38.834Z,48.56
2017-08-16T09:25:32.865Z,48.60
2017-08-16T09:26:27.013Z,48.51
2017-08-16T09:27:21.027Z,48.70
2017-08-16T09:28:15.015Z,48.90
2017-08-16T09:29:15.160Z,48.50
2017-08-16T09:30:09.215Z,49.06
2017-08-16T09:31:04.265Z,48.46
2017-08-16T09:32:04.353Z,49.23
2017-08-16T09:32:59.374Z,49.16
2017-08-16T09:33:47.416Z,48.11
2017-08-16T09:34:42.443Z,48.77
2017-08-16T09:35:36.497Z,48.88
2017-08-16T09:36:30.642Z,48.34
2017-08-16T09:37:19.752Z,47.56
2017-08-16T09:38:13.761Z,48.08
2017-08-16T09:39:07.844Z,47.64
2017-08-16T09:40:02.846Z,48.40
2017-08-16T09:40:58.028Z,49.41
2017-08-16T09:41:46.978Z,49.85
2017-08-16T09:42:41.072Z,49.15
2017-08-16T09:43:29.072Z,49.47
2017-08-16T09:44:23.209Z,49.72
2017-08-16T09:45:17.269Z,49.14
2017-08-16T09:46:06.329Z,49.07
2017-08-16T09:47:01.355Z,49.18
2017-08-16T09:47:55.508Z,48.65
2017-08-16T09:48:50.523Z,49.04
2017-08-16T09:49:44.561Z,47.96
2017-08-16T09:50:39.599Z,48.14
2017-08-16T09:51:28.652Z,48.05
2017-08-16T09:52:17.738Z,48.78
2017-08-16T09:53:12.830Z,49.24
2017-08-16T09:54:06.875Z,49.64
2017-08-16T09:55:06.854Z,47.67
2017-08-16T09:56:01.008Z,48.05
2017-08-16T09:56:56.066Z,48.80
2017-08-16T09:57:50.182Z,49.11
2017-08-16T09:58:44.339Z,46.37
2017-08-16T09:59:44.266Z,48.03
2017-08-16T10:00:32.264Z,46.18
2017-08-16T10:01:26.350Z,46.81
2017-08-16T10:02:21.428Z,48.40
2017-08-16T10:03:10.450Z,49.43
2017-08-16T10:04:04.536Z,47.90
2017-08-16T10:04:58.651Z,48.41
2017-08-16T10:05:47.643Z,46.22
2017-08-16T10:06:36.781Z,46.33
2017-08-16T10:07:25.846Z,48.30
2017-08-16T10:08:15.004Z,45.99
2017-08-16T10:09:08.993Z,46.88
2017-08-16T10:10:03.038Z,48.35
2017-08-16T10:10:51.257Z,48.60
2017-08-16T10:11:45.110Z,47.64
2017-08-16T10:12:45.145Z,44.81
2017-08-16T10:13:45.217Z,45.50
2017-08-16T10:14:33.405Z,46.17
2017-08-16T10:15:27.439Z,46.75
2017-08-16T10:16:22.461Z,47.15
2017-08-16T10:17:22.625Z,46.32
2017-08-16T10:18:16.715Z,46.88
2017-08-16T10:19:11.679Z,45.88
2017-08-16T10:20:11.700Z,47.89
2017-08-16T10:21:06.771Z,47.05
2017-08-16T10:21:55.805Z,45.23
2017-08-16T10:22:55.835Z,47.36
2017-08-16T10:23:50.032Z,47.05
2017-08-16T10:24:44.088Z,49.23
2017-08-16T10:25:38.163Z,47.77
2017-08-16T10:26:32.199Z,47.02
2017-08-16T10:27:27.177Z,47.17
2017-08-16T10:28:22.257Z,49.43
2017-08-16T10:29:11.300Z,48.77
2017-08-16T10:30:06.493Z,46.98
2017-08-16T10:30:55.786Z,48.79
2017-08-16T10:31:55.552Z,44.63
2017-08-16T10:32:44.616Z,44.74
2017-08-16T10:33:32.683Z,45.15
2017-08-16T10:34:39.683Z,43.00
2017-08-16T10:35:39.825Z,43.21
2017-08-16T10:36:34.898Z,43.95
2017-08-16T10:37:28.998Z,43.74
2017-08-16T10:38:24.068Z,45.28
2017-08-16T10:39:18.005Z,44.79
2017-08-16T10:40:12.116Z,45.20
2017-08-16T10:41:06.217Z,45.68
2017-08-16T10:41:54.261Z,43.83
2017-08-16T10:42:42.222Z,45.03
2017-08-16T10:43:36.429Z,44.05
2017-08-16T10:44:31.413Z,46.71
2017-08-16T10:45:31.467Z,43.86
2017-08-16T10:46:26.607Z,45.33
2017-08-16T10:47:26.744Z,44.71
2017-08-16T10:48:21.722Z,45.86
2017-08-16T10:49:15.658Z,43.93
2017-08-16T10:50:15.790Z,46.05
2017-08-16T10:51:09.905Z,45.11
2017-08-16T10:51:58.876Z,46.15
2017-08-16T10:52:47.047Z,45.82
2017-08-16T10:53:42.137Z,43.90
2017-08-16T10:54:37.202Z,43.75
2017-08-16T10:55:26.264Z,41.20
2017-08-16T10:56:21.372Z,42.38
2017-08-16T10:57:21.428Z,44.32
2017-08-16T10:58:15.554Z,46.63
2017-08-16T10:59:10.555Z,43.45
2017-08-16T11:00:04.537Z,43.94
2017-08-16T11:00:59.700Z,43.79
2017-08-16T11:01:47.723Z,43.99
2017-08-16T11:02:47.764Z,45.92
2017-08-16T11:03:42.052Z,44.93
2017-08-16T11:04:30.919Z,45.26
2017-08-16T11:05:25.017Z,47.02
2017-08-16T11:06:19.083Z,47.52
2017-08-16T11:07:13.111Z,47.27
2017-08-16T11:08:02.199Z,46.73
2017-08-16T11:08:51.252Z,47.46
2017-08-16T11:09:45.257Z,47.19
2017-08-16T11:10:33.484Z,46.74
2017-08-16T11:11:27.519Z,45.89
2017-08-16T11:12:15.468Z,46.38
2017-08-16T11:13:04.595Z,47.27
2017-08-16T11:13:58.572Z,47.49
2017-08-16T11:14:47.790Z,47.33
2017-08-16T11:15:42.277Z,46.25
2017-08-16T11:16:35.952Z,43.86
2017-08-16T11:17:30.957Z,44.04
2017-08-16T11:18:19.002Z,44.59
2017-08-16T11:19:13.331Z,44.63
2017-08-16T11:20:13.164Z,44.66
2017-08-16T11:21:07.145Z,43.00
2017-08-16T11:22:01.209Z,44.05
2017-08-16T11:22:56.378Z,46.40
2017-08-16T11:23:50.484Z,43.96
2017-08-16T11:24:45.503Z,44.93
2017-08-16T11:25:40.633Z,43.86
2017-08-16T11:26:40.561Z,44.69
2017-08-16T11:27:29.595Z,45.46
2017-08-16T11:28:18.712Z,47.25